Time;durP1;ratioP1;P1;durP2;ratioP2;P2;SDS_P1;SDS_P2;PMS_P1;PMS_P2;Temp;Humidity;BMP_temperature;BMP_pressure;BME280_temperature;BME280_humidity;BME280_pressure;Samples;Min_cycle;Max_cycle;Signal;HPM_P1;HPM_P2
2021/08/21 00:00:47;;;;;;;26.60;23.70;;;15.60;99.90;;;;;;4953862;28;20046;-49
2021/08/21 00:03:13;;;;;;;26.17;22.05;;;15.60;99.90;;;;;;4950669;28;20142;-48
2021/08/21 00:05:39;;;;;;;26.90;23.60;;;15.50;99.90;;;;;;4949542;28;20097;-47
2021/08/21 00:08:06;;;;;;;26.35;23.45;;;15.50;99.90;;;;;;4962591;28;20050;-49
2021/08/21 00:10:34;;;;;;;28.42;25.20;;;15.50;99.90;;;;;;4951747;28;20073;-49
2021/08/21 00:13:01;;;;;;;28.67;25.17;;;15.40;99.90;;;;;;4965142;28;20050;-48
2021/08/21 00:15:28;;;;;;;27.42;23.50;;;15.40;99.90;;;;;;4949165;28;20082;-51
2021/08/21 00:17:55;;;;;;;24.60;21.45;;;15.40;99.90;;;;;;4948450;29;20090;-50
2021/08/21 00:20:21;;;;;;;26.23;23.42;;;15.30;99.90;;;;;;4951882;28;20043;-49
2021/08/21 00:22:48;;;;;;;25.50;22.73;;;15.30;99.90;;;;;;4952750;29;20078;-50
2021/08/21 00:25:15;;;;;;;26.58;23.83;;;15.30;99.90;;;;;;4940957;29;20058;-49
2021/08/21 00:27:42;;;;;;;24.75;22.02;;;15.30;99.90;;;;;;4964167;28;20051;-52
2021/08/21 00:30:11;;;;;;;25.33;22.63;;;15.20;99.90;;;;;;4964944;28;20051;-51
2021/08/21 00:32:37;;;;;;;28.92;24.75;;;15.30;99.90;;;;;;4967020;28;20489;-49
2021/08/21 00:35:05;;;;;;;30.33;24.05;;;15.20;99.90;;;;;;4950762;28;20066;-49
2021/08/21 00:37:31;;;;;;;31.67;25.13;;;15.20;99.90;;;;;;4966759;28;20066;-48
2021/08/21 00:39:57;;;;;;;28.75;25.65;;;15.20;99.90;;;;;;4958765;28;20162;-48
2021/08/21 00:42:24;;;;;;;27.92;24.92;;;15.20;99.90;;;;;;4966165;28;20075;-50
2021/08/21 00:44:50;;;;;;;28.40;25.15;;;15.20;99.90;;;;;;4967294;28;20054;-50
2021/08/21 00:47:20;;;;;;;29.48;25.63;;;15.20;99.90;;;;;;4947450;29;20086;-51
2021/08/21 00:49:52;;;;;;;29.77;26.67;;;15.10;99.90;;;;;;4935020;28;20134;-47
2021/08/21 00:52:20;;;;;;;;;;;15.10;99.90;;;;;;4958227;28;20055;-48
2021/08/21 00:54:50;;;;;;;27.90;22.90;;;15.00;99.90;;;;;;4960181;28;20483;-52
2021/08/21 00:57:17;;;;;;;27.75;24.67;;;15.00;99.90;;;;;;4949576;28;20055;-51
2021/08/21 00:59:50;;;;;;;28.23;25.25;;;15.00;99.90;;;;;;4931458;29;20051;-50
2021/08/21 01:02:18;;;;;;;31.85;27.90;;;15.00;99.90;;;;;;4945110;28;20051;-46
2021/08/21 01:04:50;;;;;;;32.67;28.83;;;14.90;99.90;;;;;;4974589;28;20046;-49
2021/08/21 01:07:23;;;;;;;33.85;29.38;;;14.90;99.90;;;;;;4945961;28;20047;-47
2021/08/21 01:09:49;;;;;;;32.45;29.05;;;14.90;99.90;;;;;;4944749;29;20048;-50
2021/08/21 01:12:18;;;;;;;36.88;31.17;;;14.90;99.90;;;;;;4951840;28;20151;-49
2021/08/21 01:14:45;;;;;;;34.67;30.95;;;14.90;99.90;;;;;;4946798;29;20059;-51
2021/08/21 01:17:15;;;;;;;34.00;28.88;;;14.90;99.90;;;;;;4934669;29;20055;-50
2021/08/21 01:19:47;;;;;;;32.97;29.40;;;14.80;99.90;;;;;;4935540;28;20043;-48
2021/08/21 01:22:25;;;;;;;32.60;29.05;;;14.80;99.90;;;;;;4934929;29;20047;-50
2021/08/21 01:24:55;;;;;;;31.70;28.27;;;14.80;99.90;;;;;;4948679;28;20059;-50
2021/08/21 01:27:23;;;;;;;31.70;27.33;;;14.80;99.90;;;;;;4933240;29;20492;-49
2021/08/21 01:30:11;;;;;;;33.53;28.80;;;14.70;99.90;;;;;;4938240;28;20090;-49
2021/08/21 01:32:47;;;;;;;31.63;28.23;;;14.70;99.90;;;;;;4938785;28;20058;-48
2021/08/21 01:35:17;;;;;;;35.00;29.75;;;14.70;99.90;;;;;;4951111;28;20051;-51
2021/08/21 01:37:45;;;;;;;34.25;30.00;;;14.80;99.90;;;;;;4950417;28;20495;-49
2021/08/21 01:40:31;;;;;;;34.83;29.63;;;14.80;99.90;;;;;;4951511;28;20758;-53
2021/08/21 01:43:02;;;;;;;38.70;30.77;;;14.90;99.90;;;;;;4951155;28;20185;-48
2021/08/21 01:45:33;;;;;;;36.28;30.00;;;14.90;99.90;;;;;;4935384;29;20047;-47
2021/08/21 01:47:59;;;;;;;33.40;29.77;;;14.90;99.90;;;;;;4932889;28;20500;-47
2021/08/21 01:50:25;;;;;;;33.17;29.35;;;15.00;99.90;;;;;;4951894;28;20047;-51
2021/08/21 01:52:52;;;;;;;35.75;31.88;;;15.00;99.90;;;;;;4948469;28;20400;-51
2021/08/21 01:55:29;;;;;;;33.22;29.65;;;15.00;99.90;;;;;;4936207;28;20055;-52
2021/08/21 01:57:58;;;;;;;32.65;29.17;;;15.00;99.90;;;;;;4941295;29;20055;-48
2021/08/21 02:00:34;;;;;;;32.20;28.70;;;15.00;99.90;;;;;;4948507;28;20050;-48
2021/08/21 02:03:01;;;;;;;37.03;32.53;;;14.90;99.90;;;;;;4950992;28;20065;-51
2021/08/21 02:05:37;;;;;;;34.63;30.33;;;14.90;99.90;;;;;;4969074;28;20082;-48
2021/08/21 02:08:03;;;;;;;34.63;29.48;;;14.90;99.90;;;;;;4952563;28;20051;-48
2021/08/21 02:10:30;;;;;;;37.13;30.83;;;14.90;99.90;;;;;;4937951;28;20130;-51
2021/08/21 02:12:56;;;;;;;38.08;30.40;;;14.80;99.90;;;;;;4934412;28;20078;-50
2021/08/21 02:15:26;;;;;;;36.90;31.13;;;14.70;99.90;;;;;;4935170;28;20078;-47
2021/08/21 02:17:57;;;;;;;39.08;31.38;;;14.70;99.90;;;;;;4951021;28;20051;-49
2021/08/21 02:20:42;;;;;;;38.38;32.05;;;14.70;99.90;;;;;;4944122;29;20503;-50
2021/08/21 02:23:14;;;;;;;34.38;29.50;;;14.60;99.90;;;;;;4933914;28;20114;-49
2021/08/21 02:25:41;;;;;;;33.22;28.92;;;14.60;99.90;;;;;;4947952;28;20048;-49
2021/08/21 02:28:17;;;;;;;37.72;31.52;;;14.60;99.90;;;;;;4951165;28;20495;-49
2021/08/21 02:30:44;;;;;;;30.88;27.27;;;14.50;99.90;;;;;;4939542;29;20512;-49
2021/08/21 02:33:11;;;;;;;36.80;30.17;;;14.50;99.90;;;;;;4950425;29;20055;-50
2021/08/21 02:35:39;;;;;;;35.92;30.40;;;14.40;99.90;;;;;;4934476;29;20503;-47
2021/08/21 02:38:05;;;;;;;33.35;29.80;;;14.50;99.90;;;;;;4933114;29;20062;-50
2021/08/21 02:40:32;;;;;;;37.08;30.92;;;14.50;99.90;;;;;;4965099;28;20404;-50
2021/08/21 02:42:58;;;;;;;37.95;30.70;;;14.50;99.90;;;;;;4933163;29;20063;-46
2021/08/21 02:45:25;;;;;;;34.30;30.63;;;14.40;99.90;;;;;;4934187;29;20046;-51
2021/08/21 02:47:51;;;;;;;35.47;30.23;;;14.40;99.90;;;;;;4949673;29;20063;-48
2021/08/21 02:50:18;;;;;;;35.10;29.42;;;14.40;99.90;;;;;;4959157;28;20097;-48
2021/08/21 02:52:44;;;;;;;36.85;30.10;;;14.40;99.90;;;;;;4966722;28;20514;-49
2021/08/21 02:55:11;;;;;;;35.70;31.58;;;14.40;99.90;;;;;;4933565;28;20062;-49
2021/08/21 02:57:41;;;;;;;41.28;30.20;;;14.40;99.90;;;;;;4941779;28;20105;-48
2021/08/21 03:00:07;;;;;;;36.15;32.08;;;14.30;99.90;;;;;;4935752;28;20190;-51
2021/08/21 03:02:41;;;;;;;34.80;29.17;;;14.30;99.90;;;;;;4938765;28;20043;-48
2021/08/21 03:05:10;;;;;;;31.15;26.48;;;14.30;99.90;;;;;;4932170;29;20581;-47
2021/08/21 03:07:37;;;;;;;37.40;31.25;;;14.30;99.90;;;;;;4932254;28;20051;-51
2021/08/21 03:10:08;;;;;;;35.45;30.40;;;14.20;99.90;;;;;;4949314;28;20475;-48
2021/08/21 03:13:04;;;;;;;35.38;30.13;;;14.20;99.90;;;;;;4927113;29;20093;-49
2021/08/21 03:15:32;;;;;;;30.27;26.95;;;14.20;99.90;;;;;;4930040;29;20049;-47
2021/08/21 03:17:59;;;;;;;36.45;32.05;;;14.20;99.90;;;;;;4947042;28;20051;-46
2021/08/21 03:20:27;;;;;;;41.67;33.25;;;14.20;99.90;;;;;;4945855;29;20058;-47
2021/08/21 03:22:54;;;;;;;41.65;34.28;;;14.20;99.90;;;;;;4946568;29;20062;-50
2021/08/21 03:25:24;;;;;;;33.35;29.73;;;14.20;99.90;;;;;;4945615;29;20526;-52
2021/08/21 03:27:52;;;;;;;38.28;32.63;;;14.20;99.90;;;;;;4945693;29;20047;-48
2021/08/21 03:30:18;;;;;;;37.45;33.13;;;14.20;99.90;;;;;;4946432;29;20058;-49
2021/08/21 03:32:47;;;;;;;40.28;32.15;;;14.10;99.90;;;;;;4946434;29;20059;-50
2021/08/21 03:35:16;;;;;;;42.30;33.42;;;14.20;99.90;;;;;;4945488;29;20043;-47
2021/08/21 03:37:42;;;;;;;39.08;33.92;;;14.20;99.90;;;;;;4946018;29;20175;-48
2021/08/21 03:40:10;;;;;;;36.30;31.52;;;14.20;99.90;;;;;;4944260;29;20152;-48
2021/08/21 03:42:36;;;;;;;37.80;33.67;;;14.20;99.90;;;;;;4932747;29;20063;-49
2021/08/21 03:45:12;;;;;;;37.15;33.17;;;14.20;99.90;;;;;;4945721;29;20051;-48
2021/08/21 03:47:38;;;;;;;36.42;31.52;;;14.20;99.90;;;;;;4943371;29;20058;-48
2021/08/21 03:50:06;;;;;;;35.55;31.55;;;14.20;99.90;;;;;;4932604;28;20046;-48
2021/08/21 03:52:35;;;;;;;35.97;32.28;;;14.20;99.90;;;;;;4930791;29;20488;-51
2021/08/21 03:55:02;;;;;;;34.25;30.60;;;14.20;99.90;;;;;;4943483;28;20066;-50
2021/08/21 03:57:29;;;;;;;36.63;32.17;;;14.20;99.90;;;;;;4943408;29;20051;-47
2021/08/21 03:59:56;;;;;;;35.92;31.85;;;14.20;99.90;;;;;;4935440;28;20058;-48
2021/08/21 04:02:22;;;;;;;36.97;32.95;;;14.30;99.90;;;;;;4969420;28;20046;-48
2021/08/21 04:04:49;;;;;;;36.30;32.50;;;14.30;99.90;;;;;;4966538;28;20059;-47
2021/08/21 04:07:18;;;;;;;40.78;35.97;;;14.30;99.90;;;;;;4934131;29;20051;-51
2021/08/21 04:09:44;;;;;;;43.65;35.22;;;14.40;99.90;;;;;;4931584;29;20055;-50
2021/08/21 04:12:14;;;;;;;47.42;37.35;;;14.40;99.90;;;;;;4932268;28;20091;-48
2021/08/21 04:14:51;;;;;;;53.67;39.13;;;14.40;99.90;;;;;;4931720;28;20775;-49
2021/08/21 04:17:17;;;;;;;57.28;41.75;;;14.40;99.90;;;;;;4949069;28;20047;-47
2021/08/21 04:19:43;;;;;;;65.85;42.72;;;14.50;99.90;;;;;;4941335;29;20047;-47
2021/08/21 04:22:10;;;;;;;83.97;44.08;;;14.50;99.90;;;;;;4931739;29;20062;-47
2021/08/21 04:25:02;;;;;;;;;;;14.50;99.90;;;;;;4946266;29;20051;-48
2021/08/21 04:27:28;;;;;;;107.78;47.28;;;14.50;99.90;;;;;;4949233;28;20355;-46
2021/08/21 04:29:54;;;;;;;90.30;46.00;;;14.50;99.90;;;;;;4945222;28;20062;-49
2021/08/21 04:32:21;;;;;;;219.30;60.97;;;14.50;99.90;;;;;;4950098;28;20058;-48
2021/08/21 04:34:49;;;;;;;137.73;47.95;;;14.50;99.90;;;;;;4939302;29;20535;-48
2021/08/21 04:37:16;;;;;;;123.90;46.15;;;14.50;99.90;;;;;;4938959;28;20490;-49
2021/08/21 04:39:43;;;;;;;157.32;52.60;;;14.50;99.90;;;;;;4948389;28;20500;-49
2021/08/21 04:42:13;;;;;;;140.27;49.38;;;14.60;99.90;;;;;;4952992;28;20058;-49
2021/08/21 04:44:39;;;;;;;292.30;63.83;;;14.50;99.90;;;;;;4951855;28;20066;-47
2021/08/21 04:47:10;;;;;;;151.50;48.07;;;14.50;99.90;;;;;;4947176;29;20692;-46
2021/08/21 04:49:37;;;;;;;156.75;48.30;;;14.50;99.90;;;;;;4935735;28;20089;-47
2021/08/21 04:52:04;;;;;;;132.00;48.35;;;14.50;99.90;;;;;;4941320;28;20551;-48
2021/08/21 04:54:30;;;;;;;232.25;57.72;;;14.50;99.90;;;;;;4953532;28;20094;-48
2021/08/21 04:56:59;;;;;;;325.17;61.35;;;14.50;99.90;;;;;;4954932;28;20055;-48
2021/08/21 04:59:27;;;;;;;468.35;74.53;;;14.50;99.90;;;;;;4945344;29;20603;-50
2021/08/21 05:01:58;;;;;;;380.02;61.10;;;14.60;99.90;;;;;;4948923;28;20051;-47
2021/08/21 05:04:26;;;;;;;598.05;82.07;;;14.60;99.90;;;;;;4953213;28;20531;-51
2021/08/21 05:06:54;;;;;;;424.92;72.80;;;14.60;99.90;;;;;;4952055;28;20047;-53
2021/08/21 05:09:22;;;;;;;211.73;46.05;;;14.60;99.90;;;;;;4948037;28;20051;-50
2021/08/21 05:11:52;;;;;;;502.58;78.53;;;14.70;99.90;;;;;;4947191;28;20069;-48
2021/08/21 05:14:21;;;;;;;414.63;71.78;;;14.70;99.90;;;;;;4966183;28;20063;-49
2021/08/21 05:16:48;;;;;;;253.02;51.97;;;14.70;99.90;;;;;;4950212;28;20047;-49
2021/08/21 05:19:50;;;;;;;252.68;55.30;;;14.70;99.90;;;;;;4899560;29;20139;-51
2021/08/21 05:22:38;;;;;;;260.35;57.35;;;14.70;99.90;;;;;;4892927;29;20080;-50
2021/08/21 05:25:05;;;;;;;305.90;55.15;;;14.80;99.90;;;;;;4911114;29;20056;-49
2021/08/21 05:27:32;;;;;;;296.45;57.08;;;14.80;99.90;;;;;;4902306;29;20052;-51
2021/08/21 05:29:59;;;;;;;300.95;58.42;;;14.80;99.90;;;;;;4912995;29;20147;-53
2021/08/21 05:32:27;;;;;;;184.77;45.80;;;14.90;99.90;;;;;;4916875;29;20060;-49
2021/08/21 05:34:54;;;;;;;99.22;38.35;;;14.90;99.90;;;;;;4928685;29;20154;-50
2021/08/21 05:37:20;;;;;;;277.80;60.80;;;14.90;99.90;;;;;;4904236;29;20056;-50
2021/08/21 05:39:46;;;;;;;199.13;51.20;;;14.90;99.90;;;;;;4908377;29;20048;-50
2021/08/21 05:42:12;;;;;;;144.88;40.58;;;15.00;99.90;;;;;;4911503;29;20052;-51
2021/08/21 05:44:39;;;;;;;289.88;59.47;;;15.00;99.90;;;;;;4918949;29;20572;-49
2021/08/21 05:47:05;;;;;;;148.75;42.05;;;15.00;99.90;;;;;;4910931;29;20781;-49
2021/08/21 05:49:31;;;;;;;181.70;43.28;;;15.00;99.90;;;;;;4908818;29;20052;-50
2021/08/21 05:51:57;;;;;;;204.73;50.63;;;15.10;99.90;;;;;;4908781;29;20075;-51
2021/08/21 05:54:28;;;;;;;224.93;51.75;;;15.10;99.90;;;;;;4908323;29;20059;-49
2021/08/21 05:56:57;;;;;;;100.03;40.78;;;15.10;99.90;;;;;;4951466;28;20058;-51
2021/08/21 05:59:24;;;;;;;227.18;50.70;;;15.30;99.90;;;;;;4969267;28;20061;-52
2021/08/21 06:01:51;;;;;;;194.27;45.30;;;15.30;99.90;;;;;;4956590;28;20061;-52
2021/08/21 06:04:17;;;;;;;274.23;55.30;;;15.50;99.90;;;;;;4970038;28;20082;-52
2021/08/21 06:06:43;;;;;;;175.68;45.58;;;15.50;99.90;;;;;;4949971;28;20377;-52
2021/08/21 06:09:10;;;;;;;233.25;49.47;;;15.50;99.90;;;;;;4933292;29;20058;-50
2021/08/21 06:11:36;;;;;;;315.00;56.95;;;15.50;99.90;;;;;;4939865;28;20087;-51
2021/08/21 06:14:02;;;;;;;109.22;35.97;;;15.60;99.90;;;;;;4960952;28;20054;-52
2021/08/21 06:16:28;;;;;;;205.93;44.95;;;15.70;99.90;;;;;;4967640;28;20126;-52
2021/08/21 06:18:55;;;;;;;175.55;43.75;;;15.80;99.90;;;;;;4950087;29;20519;-53
2021/08/21 06:21:23;;;;;;;250.55;55.17;;;15.80;99.90;;;;;;4960093;28;20074;-53
2021/08/21 06:23:49;;;;;;;160.20;40.53;;;16.00;99.90;;;;;;4969549;28;20075;-52
2021/08/21 06:26:15;;;;;;;141.45;42.90;;;16.10;99.90;;;;;;4969124;28;20047;-55
2021/08/21 06:28:41;;;;;;;204.70;42.70;;;16.20;99.90;;;;;;4985389;28;20141;-53
2021/08/21 06:31:08;;;;;;;174.00;46.85;;;16.20;99.90;;;;;;4988850;28;20050;-52
2021/08/21 06:33:34;;;;;;;102.55;63.83;;;16.40;99.90;;;;;;4974183;28;20078;-51
2021/08/21 06:36:00;;;;;;;172.35;42.35;;;16.50;99.90;;;;;;4968537;28;20059;-52
2021/08/21 06:38:27;;;;;;;107.57;34.67;;;16.60;99.90;;;;;;4968952;28;20050;-50
2021/08/21 06:40:53;;;;;;;135.57;37.50;;;16.70;99.90;;;;;;4934109;29;20078;-51
2021/08/21 06:43:19;;;;;;;97.63;34.63;;;16.70;99.90;;;;;;4962040;28;20046;-50
2021/08/21 06:46:07;;;;;;;60.70;32.17;;;16.90;99.90;;;;;;4963641;28;20055;-51
2021/08/21 06:48:36;;;;;;;169.35;37.60;;;17.00;99.90;;;;;;4965216;28;20137;-52
2021/08/21 06:51:05;;;;;;;95.82;34.38;;;16.90;99.90;;;;;;4960554;28;20051;-54
2021/08/21 06:53:31;;;;;;;68.63;32.35;;;17.00;99.90;;;;;;4966550;28;20055;-50
2021/08/21 06:56:01;;;;;;;93.72;36.10;;;17.10;99.90;;;;;;4953837;28;20054;-50
2021/08/21 06:58:28;;;;;;;78.28;33.88;;;17.20;99.90;;;;;;4960281;28;20150;-53
2021/08/21 07:00:58;;;;;;;59.65;34.53;;;17.20;99.90;;;;;;4950659;28;20070;-54
2021/08/21 07:03:25;;;;;;;56.33;33.22;;;17.20;99.90;;;;;;4953556;28;20054;-52
2021/08/21 07:05:51;;;;;;;91.57;35.33;;;17.40;99.90;;;;;;4969694;28;21797;-49
2021/08/21 07:08:18;;;;;;;81.13;35.65;;;17.30;99.90;;;;;;4970993;28;20090;-54
2021/08/21 07:10:47;;;;;;;73.22;32.67;;;17.30;99.90;;;;;;4961060;28;20051;-55
2021/08/21 07:13:13;;;;;;;54.53;31.77;;;17.30;99.90;;;;;;4959077;28;20575;-52
2021/08/21 07:15:42;;;;;;;82.20;34.92;;;17.50;99.90;;;;;;4965744;28;20102;-51
2021/08/21 07:18:13;;;;;;;79.25;34.53;;;17.50;99.90;;;;;;4968108;28;20795;-51
2021/08/21 07:20:39;;;;;;;77.70;41.88;;;17.60;99.90;;;;;;4968447;28;20055;-51
2021/08/21 07:23:08;;;;;;;56.53;38.95;;;17.70;99.90;;;;;;4965470;28;20047;-52
2021/08/21 07:25:38;;;;;;;79.40;45.90;;;17.70;99.90;;;;;;4963147;28;20049;-50
2021/08/21 07:28:04;;;;;;;73.35;35.95;;;17.70;99.90;;;;;;4967734;28;20078;-52
2021/08/21 07:30:34;;;;;;;70.05;37.47;;;17.70;99.90;;;;;;4961210;28;20066;-50
2021/08/21 07:33:06;;;;;;;57.92;35.78;;;17.70;99.90;;;;;;4960498;28;20158;-51
2021/08/21 07:35:39;;;;;;;64.75;35.42;;;17.80;99.90;;;;;;4967646;28;20387;-51
2021/08/21 07:38:09;;;;;;;55.42;36.33;;;17.80;99.90;;;;;;4968298;28;20691;-50
2021/08/21 07:40:41;;;;;;;51.58;36.15;;;18.00;99.90;;;;;;4963717;28;20124;-48
2021/08/21 07:43:07;;;;;;;48.22;37.65;;;18.00;99.90;;;;;;4965692;28;20154;-51
2021/08/21 07:45:35;;;;;;;49.67;37.03;;;18.20;99.90;;;;;;4952444;28;20062;-53
2021/08/21 07:48:01;;;;;;;62.13;44.88;;;18.30;99.90;;;;;;4955641;28;20078;-52
2021/08/21 07:50:27;;;;;;;54.53;38.47;;;18.20;99.90;;;;;;4968481;28;20609;-52
2021/08/21 07:52:53;;;;;;;52.40;39.70;;;18.20;99.90;;;;;;4967445;28;20090;-51
2021/08/21 07:55:25;;;;;;;48.05;38.97;;;18.20;99.90;;;;;;4937526;28;20524;-49
2021/08/21 07:57:54;;;;;;;53.38;44.53;;;18.40;99.90;;;;;;4948441;28;20054;-54
2021/08/21 08:00:20;;;;;;;46.92;38.20;;;18.50;99.90;;;;;;4949968;28;20051;-52
2021/08/21 08:02:47;;;;;;;46.75;39.92;;;18.40;99.90;;;;;;4967047;28;20058;-52
2021/08/21 08:05:16;;;;;;;48.53;40.47;;;18.60;99.90;;;;;;4965142;28;20125;-53
2021/08/21 08:07:46;;;;;;;47.10;40.22;;;18.70;99.90;;;;;;4966503;28;20767;-52
2021/08/21 08:10:12;;;;;;;45.28;39.85;;;18.60;99.90;;;;;;4968074;28;20150;-48
2021/08/21 08:12:38;;;;;;;88.40;79.07;;;18.80;99.90;;;;;;4951579;28;20059;-51
2021/08/21 08:15:08;;;;;;;51.17;42.13;;;18.90;99.90;;;;;;4961437;28;20054;-51
2021/08/21 08:17:41;;;;;;;49.55;42.33;;;19.00;99.90;;;;;;4952790;28;20050;-52
2021/08/21 08:20:11;;;;;;;45.97;40.95;;;19.10;99.90;;;;;;4960434;28;20070;-51
2021/08/21 08:22:38;;;;;;;43.75;38.97;;;19.20;99.90;;;;;;4950377;28;20058;-54
2021/08/21 08:25:05;;;;;;;45.40;40.72;;;19.30;99.90;;;;;;4967521;28;20089;-50
2021/08/21 08:27:32;;;;;;;46.03;41.00;;;19.20;99.90;;;;;;4955804;28;20062;-50
2021/08/21 08:30:01;;;;;;;45.55;40.95;;;19.20;99.90;;;;;;4957199;28;20646;-54
2021/08/21 08:32:27;;;;;;;46.05;41.25;;;19.40;99.90;;;;;;4952826;28;20518;-52
2021/08/21 08:34:54;;;;;;;45.65;40.85;;;19.70;99.90;;;;;;4968168;28;20050;-52
2021/08/21 08:37:40;;;;;;;;;;;19.80;99.90;;;;;;4970592;28;20519;-53
2021/08/21 08:40:12;;;;;;;48.40;43.35;;;19.70;99.90;;;;;;4962857;28;19932;-55
2021/08/21 08:42:40;;;;;;;44.83;40.22;;;19.80;99.90;;;;;;4971620;28;20055;-51
2021/08/21 08:45:12;;;;;;;47.90;43.00;;;19.70;99.90;;;;;;4964582;28;20141;-51
2021/08/21 08:47:39;;;;;;;46.75;41.83;;;19.70;99.90;;;;;;4959953;28;20051;-51
2021/08/21 08:50:08;;;;;;;55.13;49.55;;;19.60;99.90;;;;;;4966982;28;20047;-52
2021/08/21 08:52:34;;;;;;;48.72;43.75;;;19.80;99.90;;;;;;4949787;28;20055;-54
2021/08/21 08:55:06;;;;;;;48.60;43.80;;;19.90;99.90;;;;;;4957886;28;20059;-50
2021/08/21 08:57:36;;;;;;;57.90;51.78;;;20.10;99.90;;;;;;4967370;28;20069;-51
2021/08/21 09:00:12;;;;;;;50.38;45.22;;;20.20;99.90;;;;;;4967491;28;20050;-52
2021/08/21 09:02:44;;;;;;;50.80;45.75;;;20.30;99.90;;;;;;4949013;28;20428;-51
2021/08/21 09:05:13;;;;;;;60.63;54.47;;;20.50;99.90;;;;;;4953000;28;20056;-50
2021/08/21 09:07:45;;;;;;;71.90;64.53;;;21.30;99.90;;;;;;4967146;28;20570;-51
2021/08/21 09:10:17;;;;;;;42.95;38.95;;;22.30;99.90;;;;;;4951829;28;20051;-53
2021/08/21 09:12:48;;;;;;;43.83;39.42;;;22.90;99.90;;;;;;4950526;28;20059;-53
2021/08/21 09:15:28;;;;;;;42.53;38.35;;;23.40;99.90;;;;;;4948608;28;20051;-52
2021/08/21 09:18:05;;;;;;;43.53;39.30;;;24.10;99.90;;;;;;4962096;28;20051;-50
2021/08/21 09:20:47;;;;;;;41.58;37.88;;;24.30;99.90;;;;;;4951052;28;20400;-47
2021/08/21 09:23:19;;;;;;;42.60;38.80;;;23.60;99.90;;;;;;4969686;28;20045;-49
2021/08/21 09:25:47;;;;;;;40.93;37.03;;;23.50;99.90;;;;;;4974496;28;20097;-48
2021/08/21 09:28:25;;;;;;;40.22;36.60;;;23.70;99.90;;;;;;4970364;28;20051;-51
2021/08/21 09:31:20;;;;;;;40.03;36.42;;;24.00;99.90;;;;;;4971163;28;20050;-46
2021/08/21 09:33:49;;;;;;;38.83;35.53;;;24.60;99.90;;;;;;4970251;28;20061;-48
2021/08/21 09:36:30;;;;;;;37.17;33.75;;;24.80;99.90;;;;;;4961519;28;20058;-47
2021/08/21 09:38:59;;;;;;;37.40;33.97;;;24.50;99.90;;;;;;4966340;28;20058;-47
2021/08/21 09:41:26;;;;;;;37.17;33.75;;;24.50;99.90;;;;;;4964142;28;20059;-47
2021/08/21 09:44:07;;;;;;;34.25;31.15;;;24.80;99.90;;;;;;4970358;28;20578;-48
2021/08/21 09:46:34;;;;;;;33.28;30.38;;;25.20;99.90;;;;;;4962318;28;20503;-46
2021/08/21 09:49:11;;;;;;;33.25;30.33;;;25.70;99.90;;;;;;4951581;29;20428;-49
2021/08/21 09:51:46;;;;;;;33.67;30.77;;;25.60;98.70;;;;;;4962073;28;20053;-47
2021/08/21 09:54:16;;;;;;;34.67;31.73;;;25.50;99.90;;;;;;4969325;28;20108;-48
2021/08/21 09:56:52;;;;;;;30.67;27.98;;;25.20;99.90;;;;;;4974655;28;20065;-46
2021/08/21 09:59:31;;;;;;;31.35;28.52;;;24.90;99.90;;;;;;4953023;28;20523;-51
2021/08/21 10:01:58;;;;;;;30.73;27.90;;;25.00;99.90;;;;;;4952051;28;20098;-47
2021/08/21 10:04:24;;;;;;;30.38;27.67;;;25.20;99.90;;;;;;4950697;28;20047;-48
2021/08/21 10:06:51;;;;;;;26.73;24.50;;;25.30;99.90;;;;;;4963919;28;20093;-46
2021/08/21 10:09:22;;;;;;;32.73;29.77;;;25.50;99.90;;;;;;4957382;28;20058;-48
2021/08/21 10:11:50;;;;;;;27.05;24.60;;;25.60;99.90;;;;;;4964632;28;20059;-48
2021/08/21 10:14:19;;;;;;;28.00;25.50;;;25.30;99.90;;;;;;4969929;28;20054;-46
2021/08/21 10:16:51;;;;;;;26.10;23.80;;;25.20;99.90;;;;;;4969926;28;20128;-49
2021/08/21 10:19:22;;;;;;;27.23;24.88;;;25.40;99.90;;;;;;4968459;28;20803;-50
2021/08/21 10:21:55;;;;;;;25.65;23.55;;;25.60;99.90;;;;;;4957496;28;20063;-51
2021/08/21 10:24:37;;;;;;;25.15;22.80;;;26.40;99.90;;;;;;4950840;28;20098;-47
2021/08/21 10:27:23;;;;;;;27.20;24.90;;;26.60;99.90;;;;;;4951325;29;20137;-47
2021/08/21 10:30:01;;;;;;;25.90;23.80;;;26.40;98.50;;;;;;4952673;28;20047;-50
2021/08/21 10:32:41;;;;;;;25.00;22.92;;;26.70;97.30;;;;;;4968619;28;20137;-50
2021/08/21 10:35:12;;;;;;;20.83;19.03;;;26.80;98.50;;;;;;4969433;28;20051;-51
2021/08/21 10:37:44;;;;;;;19.38;17.67;;;27.00;97.60;;;;;;4959260;28;20502;-49
2021/08/21 10:40:26;;;;;;;18.85;17.25;;;27.90;91.60;;;;;;4966148;28;20516;-47
2021/08/21 10:43:00;;;;;;;17.23;15.82;;;27.90;86.90;;;;;;4950571;29;20047;-51
2021/08/21 10:45:46;;;;;;;18.02;16.52;;;27.70;82.00;;;;;;4953545;28;20420;-48
2021/08/21 10:48:38;;;;;;;18.98;17.45;;;27.30;76.10;;;;;;4957238;28;20047;-48
2021/08/21 10:51:24;;;;;;;19.35;17.67;;;27.10;83.00;;;;;;4968621;28;20059;-52
2021/08/21 10:53:51;;;;;;;17.27;15.82;;;26.70;84.90;;;;;;4959440;28;20090;-52
2021/08/21 10:56:38;;;;;;;16.58;15.02;;;26.60;86.50;;;;;;4950387;28;20051;-50
2021/08/21 10:59:04;;;;;;;15.57;14.20;;;26.40;92.00;;;;;;4950003;29;20144;-49
2021/08/21 11:01:30;;;;;;;15.63;14.13;;;26.20;91.50;;;;;;4956855;28;20521;-50
2021/08/21 11:03:57;;;;;;;15.48;14.18;;;26.30;92.00;;;;;;4960292;28;20061;-47
2021/08/21 11:06:32;;;;;;;12.43;11.32;;;26.40;87.90;;;;;;4973585;28;20055;-52
2021/08/21 11:09:08;;;;;;;12.45;11.25;;;26.70;86.20;;;;;;4951450;29;20059;-54
2021/08/21 11:11:44;;;;;;;16.40;15.00;;;26.90;85.10;;;;;;4954684;28;20062;-55
2021/08/21 11:14:21;;;;;;;11.95;10.95;;;27.00;77.30;;;;;;4968031;28;20065;-55
2021/08/21 11:16:57;;;;;;;14.07;12.77;;;27.70;81.70;;;;;;4970328;28;20051;-52
2021/08/21 11:19:41;;;;;;;15.63;14.32;;;27.80;75.20;;;;;;4969496;28;20495;-51
2021/08/21 11:22:16;;;;;;;21.65;19.77;;;28.10;71.90;;;;;;4969018;28;20082;-53
2021/08/21 11:24:53;;;;;;;15.77;14.38;;;28.00;75.40;;;;;;4967313;28;20770;-55
2021/08/21 11:27:22;;;;;;;14.13;12.93;;;28.10;76.40;;;;;;4976748;28;20146;-52
2021/08/21 11:30:13;;;;;;;13.57;12.38;;;28.40;75.00;;;;;;4969558;28;20050;-55
2021/08/21 11:33:07;;;;;;;14.23;12.73;;;28.40;75.30;;;;;;4969829;28;20059;-55
2021/08/21 11:35:45;;;;;;;14.10;12.90;;;27.80;68.70;;;;;;4957218;28;20058;-54
2021/08/21 11:38:17;;;;;;;20.42;18.67;;;27.20;71.40;;;;;;4967396;28;20051;-55
2021/08/21 11:40:53;;;;;;;17.05;15.52;;;27.30;71.60;;;;;;4966702;28;20051;-49
2021/08/21 11:43:26;;;;;;;10.57;9.68;;;27.50;73.70;;;;;;4935232;28;20050;-52
2021/08/21 11:45:59;;;;;;;11.35;10.35;;;27.90;69.10;;;;;;4966783;28;20046;-56
2021/08/21 11:48:30;;;;;;;10.38;9.48;;;28.90;70.80;;;;;;4961066;28;20058;-50
2021/08/21 11:50:58;;;;;;;10.82;9.80;;;29.40;69.00;;;;;;4967364;28;20054;-55
2021/08/21 11:53:32;;;;;;;12.10;11.00;;;29.60;67.80;;;;;;4966882;28;20415;-56
2021/08/21 11:56:01;;;;;;;9.77;8.90;;;29.10;63.90;;;;;;4957672;28;20510;-56
2021/08/21 11:58:31;;;;;;;9.55;8.65;;;29.20;64.30;;;;;;4964466;28;20138;-56
2021/08/21 12:01:07;;;;;;;;;;;29.70;64.50;;;;;;4969691;28;20066;-56
2021/08/21 12:06:24;;;;;;;8.70;7.75;;;29.70;62.60;;;;;;4930060;29;20051;-56
2021/08/21 12:08:51;;;;;;;8.63;7.82;;;28.90;61.50;;;;;;4918833;29;20060;-57
2021/08/21 12:11:19;;;;;;;8.65;7.88;;;28.60;62.90;;;;;;4930736;29;20063;-52
2021/08/21 12:13:48;;;;;;;9.20;8.20;;;28.00;63.20;;;;;;4926333;29;20052;-58
2021/08/21 12:16:17;;;;;;;9.45;8.50;;;27.80;65.90;;;;;;4928909;29;20057;-58
2021/08/21 12:18:50;;;;;;;10.18;8.85;;;28.30;65.50;;;;;;4925954;29;20052;-58
2021/08/21 12:21:20;;;;;;;8.57;7.68;;;28.80;62.50;;;;;;4927143;29;20106;-58
2021/08/21 12:23:51;;;;;;;8.80;8.00;;;28.70;62.30;;;;;;4925757;29;20047;-58
2021/08/21 12:26:34;;;;;;;7.40;6.45;;;28.80;62.50;;;;;;4928087;29;20079;-58
2021/08/21 12:29:19;;;;;;;7.20;5.93;;;28.80;59.60;;;;;;4922053;29;20066;-58
2021/08/21 12:31:48;;;;;;;7.47;6.07;;;29.10;61.00;;;;;;4926432;29;20516;-59
2021/08/21 12:34:19;;;;;;;8.43;7.63;;;28.70;63.90;;;;;;4922381;29;20052;-59
2021/08/21 12:36:48;;;;;;;;;;;28.70;64.30;;;;;;4924328;29;20623;-60
2021/08/21 12:39:25;;;;;;;10.90;9.90;;;28.70;63.20;;;;;;4926082;29;19927;-58
2021/08/21 12:41:56;;;;;;;11.50;10.50;;;29.10;63.70;;;;;;4929514;29;20079;-58
2021/08/21 12:44:38;;;;;;;10.75;9.70;;;29.30;59.30;;;;;;4958396;28;20512;-58
2021/08/21 12:47:13;;;;;;;10.73;9.65;;;29.90;59.50;;;;;;4948033;28;20055;-58